createdAt,value
2018-06-25T00:01:50.945Z,16.67
2018-06-25T00:04:20.221Z,17.07
2018-06-25T00:06:49.188Z,13.37
2018-06-25T00:09:18.129Z,16.23
2018-06-25T00:11:47.048Z,13.47
2018-06-25T00:14:16.017Z,13.57
2018-06-25T00:16:45.057Z,14.53
2018-06-25T00:19:14.069Z,16.97
2018-06-25T00:21:43.000Z,19.97
2018-06-25T00:24:11.953Z,20.80
2018-06-25T00:26:40.881Z,15.37
2018-06-25T00:29:09.841Z,22.73
2018-06-25T00:31:38.797Z,17.73
2018-06-25T00:34:07.727Z,19.20
2018-06-25T00:36:36.735Z,17.90
2018-06-25T00:39:08.921Z,21.53
2018-06-25T00:41:38.109Z,23.40
2018-06-25T00:44:07.197Z,19.70
2018-06-25T00:46:36.147Z,19.00
2018-06-25T00:49:05.165Z,19.00
2018-06-25T00:51:34.199Z,14.00
2018-06-25T00:54:03.168Z,14.50
2018-06-25T00:56:32.114Z,15.57
2018-06-25T00:59:12.549Z,14.87
2018-06-25T01:01:41.529Z,14.87
2018-06-25T01:04:10.477Z,15.37
2018-06-25T01:06:39.456Z,13.63
2018-06-25T01:09:10.629Z,14.87
2018-06-25T01:11:39.753Z,15.50
2018-06-25T01:14:08.701Z,16.37
2018-06-25T01:16:37.641Z,14.37
2018-06-25T01:19:06.685Z,13.80
2018-06-25T01:21:35.629Z,15.60
2018-06-25T01:24:04.569Z,14.90
2018-06-25T01:26:33.509Z,13.10
2018-06-25T01:29:02.426Z,12.87
2018-06-25T01:31:31.329Z,17.10
2018-06-25T01:34:05.945Z,13.97
2018-06-25T01:36:34.887Z,13.03
2018-06-25T01:39:04.794Z,11.37
2018-06-25T01:41:33.774Z,12.07
2018-06-25T01:44:02.788Z,11.97
2018-06-25T01:46:31.788Z,8.60
2018-06-25T01:49:00.784Z,13.17
2018-06-25T01:51:29.672Z,8.40
2018-06-25T01:53:58.772Z,13.43
2018-06-25T01:56:27.738Z,8.77
2018-06-25T01:58:56.678Z,7.27
2018-06-25T02:01:25.682Z,14.60
2018-06-25T02:03:54.719Z,9.63
2018-06-25T02:06:24.698Z,11.20
2018-06-25T02:08:53.612Z,10.47
2018-06-25T02:11:22.558Z,11.43
2018-06-25T02:13:51.474Z,9.67
2018-06-25T02:16:20.483Z,10.20
2018-06-25T02:18:49.385Z,16.57
2018-06-25T02:21:18.388Z,13.93
2018-06-25T02:23:47.362Z,15.90
2018-06-25T02:26:16.279Z,15.43
2018-06-25T02:28:45.280Z,11.53
2018-06-25T02:31:14.283Z,13.43
2018-06-25T02:33:43.225Z,13.03
2018-06-25T02:36:12.142Z,13.40
2018-06-25T02:38:41.255Z,14.00
2018-06-25T02:41:10.179Z,9.60
2018-06-25T02:43:39.165Z,11.70
2018-06-25T02:46:08.139Z,14.57
2018-06-25T02:48:37.087Z,15.53
2018-06-25T02:51:06.131Z,14.17
2018-06-25T02:53:35.079Z,13.23
2018-06-25T02:56:04.085Z,11.83
2018-06-25T02:58:33.042Z,17.13
2018-06-25T03:01:01.973Z,16.00
2018-06-25T03:03:30.914Z,15.13
2018-06-25T03:05:59.842Z,17.13
2018-06-25T03:08:28.805Z,11.33
2018-06-25T03:10:57.784Z,16.27
2018-06-25T03:13:26.789Z,14.50
2018-06-25T03:15:55.719Z,15.37
2018-06-25T03:18:24.683Z,14.87
2018-06-25T03:20:53.661Z,16.90
2018-06-25T03:23:22.552Z,17.90
2018-06-25T03:25:51.511Z,13.87
2018-06-25T03:28:20.476Z,15.57
2018-06-25T03:30:49.519Z,15.87
2018-06-25T03:33:18.484Z,14.53
2018-06-25T03:35:47.470Z,15.53
2018-06-25T03:38:16.374Z,14.97
2018-06-25T03:40:45.359Z,17.00
2018-06-25T03:43:14.376Z,19.87
2018-06-25T03:45:43.421Z,17.83
2018-06-25T03:48:12.460Z,17.30
2018-06-25T03:50:41.492Z,14.23
2018-06-25T03:53:10.425Z,14.17
2018-06-25T03:55:39.405Z,15.93
2018-06-25T03:58:08.420Z,11.40
2018-06-25T04:00:37.385Z,17.23
2018-06-25T04:03:06.458Z,19.60
2018-06-25T04:05:35.457Z,11.40
2018-06-25T04:08:04.523Z,15.90
2018-06-25T04:10:33.456Z,15.50
2018-06-25T04:13:02.461Z,17.53
2018-06-25T04:15:31.374Z,13.63
2018-06-25T04:18:00.373Z,15.80
2018-06-25T04:20:29.342Z,18.43
2018-06-25T04:22:58.242Z,13.93
2018-06-25T04:25:27.661Z,13.13
2018-06-25T04:27:56.782Z,10.70
2018-06-25T04:30:25.711Z,18.60
2018-06-25T04:32:54.753Z,14.03
2018-06-25T04:35:23.722Z,18.07
2018-06-25T04:37:52.609Z,16.13
2018-06-25T04:40:21.630Z,20.37
2018-06-25T04:42:55.883Z,9.97
2018-06-25T04:45:24.810Z,18.73
2018-06-25T04:47:57.610Z,11.47
2018-06-25T04:50:26.609Z,14.90
2018-06-25T04:52:55.513Z,16.30
2018-06-25T04:55:24.583Z,14.97
2018-06-25T04:57:53.584Z,16.20
2018-06-25T05:00:22.537Z,10.07
2018-06-25T05:02:51.530Z,15.13
2018-06-25T05:05:20.646Z,13.97
2018-06-25T05:07:49.637Z,12.37
2018-06-25T05:10:18.581Z,10.97
2018-06-25T05:12:47.509Z,16.00
2018-06-25T05:15:16.501Z,17.70
2018-06-25T05:17:45.473Z,12.67
2018-06-25T05:20:14.414Z,14.67
2018-06-25T05:22:43.429Z,11.40
2018-06-25T05:25:12.456Z,13.80
2018-06-25T05:27:41.379Z,12.60
2018-06-25T05:30:10.410Z,13.70
2018-06-25T05:32:39.402Z,14.13
2018-06-25T05:35:08.317Z,15.23
2018-06-25T05:37:37.287Z,14.10
2018-06-25T05:40:06.299Z,12.63
2018-06-25T05:42:35.363Z,15.33
2018-06-25T05:45:04.429Z,15.37
2018-06-25T05:47:33.393Z,20.33
2018-06-25T05:50:02.339Z,11.57
2018-06-25T05:52:31.352Z,13.30
2018-06-25T05:55:00.333Z,15.00
2018-06-25T05:57:29.290Z,12.77
2018-06-25T05:59:58.256Z,8.60
2018-06-25T06:02:27.187Z,13.87
2018-06-25T06:04:56.108Z,12.97
2018-06-25T06:07:25.137Z,14.90
2018-06-25T06:09:54.151Z,12.97
2018-06-25T06:12:23.114Z,10.83
2018-06-25T06:14:52.107Z,15.17
2018-06-25T06:17:21.085Z,11.30
2018-06-25T06:19:49.980Z,11.97
2018-06-25T06:22:18.974Z,12.63
2018-06-25T06:24:47.973Z,13.87
2018-06-25T06:27:16.946Z,9.47
2018-06-25T06:29:45.906Z,10.03
2018-06-25T06:32:15.024Z,11.53
2018-06-25T06:34:43.936Z,7.53
2018-06-25T06:37:12.987Z,12.40
2018-06-25T06:39:41.975Z,7.37
2018-06-25T06:42:10.978Z,10.97
2018-06-25T06:44:40.064Z,11.03
2018-06-25T06:47:09.085Z,12.30
2018-06-25T06:49:38.022Z,12.30
2018-06-25T06:52:07.109Z,11.13
2018-06-25T06:54:36.073Z,10.77
2018-06-25T06:57:05.193Z,7.00
2018-06-25T06:59:34.232Z,14.93
2018-06-25T07:02:03.344Z,11.97
2018-06-25T07:04:32.644Z,9.93
2018-06-25T07:07:01.848Z,10.17
2018-06-25T07:09:30.838Z,12.40
2018-06-25T07:11:59.960Z,10.63
2018-06-25T07:14:29.068Z,10.33
2018-06-25T07:16:58.019Z,9.53
2018-06-25T07:19:26.938Z,12.57
2018-06-25T07:21:56.026Z,11.37
2018-06-25T07:24:24.996Z,12.40
2018-06-25T07:26:57.300Z,9.53
2018-06-25T07:29:26.265Z,16.27
2018-06-25T07:31:56.236Z,10.27
2018-06-25T07:34:25.263Z,12.00
2018-06-25T07:36:54.288Z,10.33
2018-06-25T07:39:23.259Z,9.90
2018-06-25T07:43:21.737Z,10.33
2018-06-25T07:45:50.753Z,8.70
2018-06-25T07:48:19.846Z,7.07
2018-06-25T07:50:51.026Z,11.70
2018-06-25T07:53:20.081Z,11.27
2018-06-25T07:55:48.949Z,12.47
2018-06-25T07:58:17.968Z,12.30
2018-06-25T08:00:46.909Z,13.33
2018-06-25T08:03:15.896Z,12.97
2018-06-25T08:05:44.988Z,12.10
2018-06-25T08:08:13.973Z,10.00
2018-06-25T08:10:43.128Z,8.97
2018-06-25T08:13:12.090Z,10.13
2018-06-25T08:15:41.209Z,9.47
2018-06-25T08:18:15.904Z,9.07
2018-06-25T08:20:45.021Z,10.27
2018-06-25T08:23:13.964Z,9.37
2018-06-25T08:25:42.960Z,11.80
2018-06-25T08:28:11.896Z,8.17
2018-06-25T08:30:40.834Z,8.97
2018-06-25T08:33:09.804Z,8.43
2018-06-25T08:35:38.791Z,13.37
2018-06-25T08:38:07.898Z,9.93
2018-06-25T08:40:36.898Z,13.37
2018-06-25T08:43:05.981Z,13.63
2018-06-25T08:45:34.972Z,12.70
2018-06-25T08:48:03.964Z,11.93
2018-06-25T08:50:33.029Z,10.57
2018-06-25T08:53:01.973Z,10.63
2018-06-25T08:55:30.942Z,11.97
2018-06-25T08:58:00.237Z,12.13
2018-06-25T09:00:29.189Z,11.07
2018-06-25T09:02:59.175Z,9.07
2018-06-25T09:05:28.258Z,6.77
2018-06-25T09:07:57.369Z,7.67
2018-06-25T09:10:26.318Z,10.83
2018-06-25T09:12:55.299Z,12.70
2018-06-25T09:15:24.375Z,9.20
2018-06-25T09:17:53.278Z,9.33
2018-06-25T09:20:22.568Z,14.00
2018-06-25T09:22:51.545Z,5.97
2018-06-25T09:25:20.538Z,8.03
2018-06-25T09:27:50.289Z,5.07
2018-06-25T09:30:20.215Z,8.23
2018-06-25T09:32:49.184Z,8.50
2018-06-25T09:35:18.208Z,6.97
2018-06-25T09:37:47.108Z,9.27
2018-06-25T09:40:16.022Z,8.30
2018-06-25T09:42:44.999Z,7.60
2018-06-25T09:45:14.189Z,5.23
2018-06-25T09:47:43.179Z,9.23
2018-06-25T09:50:12.209Z,7.27
2018-06-25T09:52:41.210Z,8.57
2018-06-25T09:55:10.283Z,6.93
2018-06-25T09:57:39.291Z,6.20
2018-06-25T10:00:08.289Z,5.57
2018-06-25T10:02:37.217Z,10.87
2018-06-25T10:05:06.297Z,7.50
2018-06-25T10:07:35.425Z,7.10
2018-06-25T10:10:04.459Z,7.60
2018-06-25T10:22:18.404Z,10.77
2018-06-25T10:24:47.417Z,5.67
2018-06-25T10:27:16.396Z,4.93
2018-06-25T10:29:45.341Z,5.03
2018-06-25T10:32:14.401Z,6.10
2018-06-25T10:34:43.399Z,4.40
2018-06-25T10:37:12.417Z,3.70
2018-06-25T10:39:41.354Z,5.27
2018-06-25T10:42:10.364Z,4.53
2018-06-25T10:44:39.266Z,6.73
2018-06-25T10:47:11.380Z,4.80
2018-06-25T10:49:40.465Z,7.07
2018-06-25T10:52:09.678Z,5.97
2018-06-25T10:54:39.792Z,5.20
2018-06-25T10:57:14.275Z,5.10
2018-06-25T10:59:43.311Z,4.23
2018-06-25T11:02:12.123Z,3.60
2018-06-25T11:04:41.128Z,5.73
2018-06-25T11:07:13.517Z,3.10
2018-06-25T11:09:45.544Z,4.03
2018-06-25T11:12:14.841Z,2.87
2018-06-25T11:14:43.783Z,3.70
2018-06-25T11:17:12.952Z,4.03
2018-06-25T11:19:42.367Z,3.03
2018-06-25T11:22:11.475Z,2.73
2018-06-25T11:24:41.038Z,3.00
2018-06-25T11:27:11.329Z,3.67
2018-06-25T11:29:41.317Z,3.70
2018-06-25T11:32:10.932Z,3.03
2018-06-25T11:34:39.982Z,3.70
2018-06-25T11:37:09.321Z,3.43
2018-06-25T11:39:38.237Z,4.37
2018-06-25T11:42:08.075Z,7.43
2018-06-25T11:44:37.233Z,3.30
2018-06-25T11:47:06.580Z,2.80
2018-06-25T11:49:36.728Z,2.97
2018-06-25T11:52:06.181Z,3.00
2018-06-25T11:54:35.558Z,5.17
2018-06-25T11:57:08.281Z,2.90
2018-06-25T11:59:41.105Z,3.20
2018-06-25T12:02:10.366Z,3.40
2018-06-25T12:04:39.319Z,2.60
2018-06-25T12:07:10.334Z,5.63
2018-06-25T12:09:42.410Z,3.20
2018-06-25T12:12:11.512Z,3.83
2018-06-25T12:14:40.440Z,3.33
2018-06-25T12:17:09.354Z,5.40
2018-06-25T12:19:38.415Z,4.83
2018-06-25T12:22:07.375Z,3.23
2018-06-25T12:24:36.381Z,3.40
2018-06-25T12:27:06.340Z,3.63
2018-06-25T12:29:39.005Z,2.87
2018-06-25T12:32:09.014Z,2.77
2018-06-25T12:34:37.905Z,3.20
2018-06-25T12:37:06.859Z,5.23
2018-06-25T12:39:35.785Z,2.50
2018-06-25T12:42:04.761Z,2.30
2018-06-25T12:44:33.742Z,2.50
2018-06-25T12:47:02.722Z,2.10
2018-06-25T12:49:32.644Z,2.53
2018-06-25T12:52:02.143Z,2.20
2018-06-25T12:54:31.085Z,2.00
2018-06-25T12:57:00.368Z,3.93
2018-06-25T12:59:29.377Z,2.03
2018-06-25T13:01:58.403Z,1.73
2018-06-25T13:04:27.402Z,1.80
2018-06-25T13:06:56.367Z,1.47
2018-06-25T13:09:25.282Z,2.07
2018-06-25T13:11:54.330Z,2.00
2018-06-25T13:14:25.680Z,2.07
2018-06-25T13:16:54.620Z,1.90
2018-06-25T13:19:23.529Z,2.17
2018-06-25T13:21:52.464Z,1.67
2018-06-25T13:24:26.919Z,3.27
2018-06-25T13:27:01.548Z,1.87
2018-06-25T13:29:36.019Z,1.57
2018-06-25T13:32:04.995Z,2.17
2018-06-25T13:34:33.961Z,2.30
2018-06-25T13:37:02.903Z,2.33
2018-06-25T13:39:40.712Z,4.63
2018-06-25T13:42:09.672Z,2.07
2018-06-25T13:44:38.727Z,7.63
2018-06-25T13:47:07.799Z,1.93
2018-06-25T13:49:41.734Z,3.10
2018-06-25T13:52:10.729Z,3.30
2018-06-25T13:54:39.782Z,1.60
2018-06-25T13:57:09.709Z,2.40
2018-06-25T13:59:38.781Z,1.70
2018-06-25T14:02:07.859Z,1.90
2018-06-25T14:04:37.103Z,1.43
2018-06-25T14:07:06.205Z,1.80
2018-06-25T14:09:35.165Z,1.50
2018-06-25T14:12:04.148Z,1.33
2018-06-25T14:14:33.176Z,1.80
2018-06-25T14:17:02.189Z,1.13
2018-06-25T14:19:31.048Z,1.57
2018-06-25T14:22:00.057Z,2.97
2018-06-25T14:25:02.072Z,1.63
2018-06-25T14:27:36.428Z,3.07
2018-06-25T14:30:10.591Z,2.03
2018-06-25T14:32:40.235Z,1.43
2018-06-25T14:35:15.830Z,1.57
2018-06-25T14:37:45.673Z,3.10
2018-06-25T14:40:14.701Z,2.63
2018-06-25T14:42:43.905Z,1.37
2018-06-25T14:45:14.875Z,1.53
2018-06-25T14:47:43.900Z,1.73
2018-06-25T14:50:12.841Z,1.67
2018-06-25T14:52:41.777Z,1.40
2018-06-25T14:55:11.389Z,1.63
2018-06-25T14:57:40.370Z,2.10
2018-06-25T15:00:09.292Z,1.90
2018-06-25T15:02:38.288Z,4.90
2018-06-25T15:05:10.735Z,1.70
2018-06-25T15:07:39.705Z,1.70
2018-06-25T15:10:08.663Z,1.57
2018-06-25T15:12:37.723Z,1.63
2018-06-25T15:15:06.702Z,1.33
2018-06-25T15:17:35.654Z,4.10
2018-06-25T15:20:04.701Z,4.20
2018-06-25T15:22:33.680Z,2.67
2018-06-25T15:25:02.644Z,1.60
2018-06-25T15:27:35.191Z,2.83
2018-06-25T15:30:04.258Z,2.33
2018-06-25T15:32:33.178Z,2.60
2018-06-25T15:35:02.255Z,2.10
2018-06-25T15:37:34.213Z,3.03
2018-06-25T15:40:06.589Z,2.00
2018-06-25T15:42:35.527Z,2.10
2018-06-25T15:45:05.491Z,2.10
2018-06-25T15:47:34.484Z,2.53
2018-06-25T15:50:04.866Z,2.63
2018-06-25T15:52:33.897Z,2.00
2018-06-25T15:55:02.921Z,2.47
2018-06-25T15:57:35.545Z,1.97
2018-06-25T16:00:04.798Z,3.50
2018-06-25T16:02:34.415Z,4.27
2018-06-25T16:05:05.405Z,1.73
2018-06-25T16:07:34.367Z,2.70
2018-06-25T16:10:03.358Z,2.10
2018-06-25T16:12:32.386Z,2.17
2018-06-25T16:15:01.306Z,2.10
2018-06-25T16:17:30.268Z,1.77
2018-06-25T16:19:59.244Z,2.50
2018-06-25T16:22:28.257Z,4.23
2018-06-25T16:24:57.184Z,2.30
2018-06-25T16:27:26.182Z,4.17
2018-06-25T16:29:55.139Z,2.23
2018-06-25T16:32:24.234Z,3.13
2018-06-25T16:34:53.154Z,4.10
2018-06-25T16:37:22.078Z,2.83
2018-06-25T16:39:51.064Z,2.70
2018-06-25T16:42:20.067Z,2.20
2018-06-25T16:44:49.038Z,2.40
2018-06-25T16:47:18.150Z,2.37
2018-06-25T16:49:47.115Z,2.87
2018-06-25T16:52:16.132Z,6.37
2018-06-25T16:54:45.256Z,2.73
2018-06-25T16:57:14.165Z,2.07
2018-06-25T16:59:46.310Z,2.97
2018-06-25T17:02:15.268Z,2.50
2018-06-25T17:04:44.183Z,2.20
2018-06-25T17:07:13.175Z,2.17
2018-06-25T17:09:45.433Z,6.37
2018-06-25T17:12:15.388Z,2.60
2018-06-25T17:14:44.320Z,2.40
2018-06-25T17:17:13.292Z,3.20
2018-06-25T17:19:42.279Z,3.50
2018-06-25T17:22:11.292Z,2.93
2018-06-25T17:24:40.274Z,2.77
2018-06-25T17:27:09.151Z,3.00
2018-06-25T17:29:38.168Z,5.63
2018-06-25T17:32:07.850Z,4.47
2018-06-25T17:34:36.764Z,2.90
2018-06-25T17:37:05.706Z,4.10
2018-06-25T17:39:34.644Z,4.07
2018-06-25T17:42:03.578Z,5.40
2018-06-25T17:44:32.561Z,3.20
2018-06-25T17:47:01.593Z,3.77
2018-06-25T17:49:30.537Z,3.07
2018-06-25T17:52:01.482Z,3.90
2018-06-25T17:54:30.463Z,3.83
2018-06-25T17:56:59.446Z,2.80
2018-06-25T17:59:31.949Z,3.53
2018-06-25T18:02:00.921Z,4.83
2018-06-25T18:04:29.916Z,5.13
2018-06-25T18:06:58.962Z,4.00
2018-06-25T18:09:27.875Z,4.13
2018-06-25T18:12:02.544Z,3.40
2018-06-25T18:14:31.493Z,4.27
2018-06-25T18:17:00.439Z,3.50
2018-06-25T18:19:29.408Z,3.40
2018-06-25T18:22:02.123Z,4.10
2018-06-25T18:24:31.082Z,5.90
2018-06-25T18:27:00.039Z,3.13
2018-06-25T18:29:28.988Z,2.80
2018-06-25T18:31:57.940Z,4.47
2018-06-25T18:34:26.878Z,3.40
2018-06-25T18:36:55.790Z,3.37
2018-06-25T18:39:24.754Z,4.97
2018-06-25T18:41:53.721Z,3.60
2018-06-25T18:44:23.534Z,3.97
2018-06-25T18:46:52.524Z,3.33
2018-06-25T18:49:24.902Z,3.70
2018-06-25T18:51:53.898Z,5.17
2018-06-25T18:54:22.859Z,3.00
2018-06-25T18:56:51.775Z,3.30
2018-06-25T18:59:20.774Z,3.93
2018-06-25T19:01:53.345Z,6.10
2018-06-25T19:04:22.325Z,3.17
2018-06-25T19:06:51.424Z,3.07
2018-06-25T19:09:20.437Z,5.50
2018-06-25T19:11:49.361Z,5.97
2018-06-25T19:14:18.328Z,4.37
2018-06-25T19:16:48.307Z,5.07
2018-06-25T19:19:17.256Z,3.33
2018-06-25T19:21:46.202Z,3.33
2018-06-25T19:24:15.179Z,4.97
2018-06-25T19:26:44.124Z,3.07
2018-06-25T19:29:13.091Z,4.77
2018-06-25T19:31:42.043Z,4.93
2018-06-25T19:34:10.984Z,3.73
2018-06-25T19:36:43.330Z,3.53
2018-06-25T19:39:13.531Z,3.53
2018-06-25T19:41:42.499Z,4.43
2018-06-25T19:44:12.280Z,4.37
2018-06-25T19:46:41.291Z,3.67
2018-06-25T19:49:15.848Z,3.43
2018-06-25T19:51:51.263Z,5.77
2018-06-25T19:54:20.241Z,3.57
2018-06-25T19:56:49.201Z,3.53
2018-06-25T19:59:18.160Z,4.73
2018-06-25T20:01:51.052Z,3.83
2018-06-25T20:04:20.048Z,3.87
2018-06-25T20:06:49.973Z,5.93
2018-06-25T20:09:18.925Z,5.40
2018-06-25T20:11:47.861Z,5.47
2018-06-25T20:14:16.821Z,5.73
2018-06-25T20:16:45.835Z,3.97
2018-06-25T20:19:20.204Z,5.30
2018-06-25T20:21:49.178Z,6.30
2018-06-25T20:24:18.144Z,7.73
2018-06-25T20:26:47.091Z,5.10
2018-06-25T20:29:17.176Z,6.03
2018-06-25T20:31:46.060Z,6.07
2018-06-25T20:34:15.033Z,3.87
2018-06-25T20:36:44.074Z,6.50
2018-06-25T20:39:18.729Z,4.87
2018-06-25T20:41:48.048Z,9.37
2018-06-25T20:44:17.046Z,6.93
2018-06-25T20:46:46.037Z,7.53
2018-06-25T20:49:15.002Z,9.27
2018-06-25T20:51:44.539Z,7.30
2018-06-25T20:54:15.607Z,9.27
2018-06-25T20:56:44.555Z,6.70
2018-06-25T20:59:13.538Z,6.20
2018-06-25T21:01:42.606Z,6.40
2018-06-25T21:04:11.565Z,7.80
2018-06-25T21:06:40.531Z,6.83
2018-06-25T21:09:11.136Z,8.43
2018-06-25T21:11:42.290Z,7.97
2018-06-25T21:14:11.242Z,7.00
2018-06-25T21:16:40.214Z,7.27
2018-06-25T21:19:09.154Z,8.00
2018-06-25T21:21:38.170Z,7.87
2018-06-25T21:24:07.129Z,9.33
2018-06-25T21:26:36.093Z,6.23
2018-06-25T21:29:05.457Z,6.53
2018-06-25T21:31:34.383Z,7.70
2018-06-25T21:34:07.188Z,8.67
2018-06-25T21:36:36.132Z,9.13
2018-06-25T21:39:07.026Z,8.67
2018-06-25T21:41:35.956Z,12.67
2018-06-25T21:44:05.017Z,10.67
2018-06-25T21:46:34.197Z,9.20
2018-06-25T21:49:03.553Z,12.60
2018-06-25T21:51:41.948Z,9.33
2018-06-25T21:54:10.870Z,11.40
2018-06-25T21:56:39.801Z,11.33
2018-06-25T21:59:08.792Z,10.03
2018-06-25T22:01:37.892Z,11.43
2018-06-25T22:04:06.973Z,12.83
2018-06-25T22:06:35.910Z,10.47
2018-06-25T22:09:08.128Z,12.17
2018-06-25T22:11:37.082Z,12.83
2018-06-25T22:14:06.074Z,15.53
2018-06-25T22:16:35.268Z,11.53
2018-06-25T22:19:04.502Z,10.63
2018-06-25T22:21:33.458Z,10.20
2018-06-25T22:24:02.502Z,13.03
2018-06-25T22:26:31.477Z,10.50
2018-06-25T22:29:00.444Z,11.17
2018-06-25T22:31:29.425Z,13.57
2018-06-25T22:33:58.384Z,11.67
2018-06-25T22:36:30.654Z,12.13
2018-06-25T22:38:59.696Z,16.20
2018-06-25T22:41:28.640Z,10.50
2018-06-25T22:44:08.924Z,11.53
2018-06-25T22:46:39.122Z,14.97
2018-06-25T22:49:13.623Z,11.90
2018-06-25T22:51:48.093Z,10.90
2018-06-25T22:54:17.049Z,10.97
2018-06-25T22:56:46.035Z,13.43
2018-06-25T22:59:15.032Z,12.23
2018-06-25T23:01:44.004Z,11.30
2018-06-25T23:04:12.918Z,16.10
2018-06-25T23:06:41.861Z,9.97
2018-06-25T23:09:11.666Z,12.97
2018-06-25T23:11:40.624Z,11.00
2018-06-25T23:14:09.571Z,15.37
2018-06-25T23:16:38.562Z,14.33
2018-06-25T23:19:07.500Z,15.27
2018-06-25T23:21:36.378Z,15.37
2018-06-25T23:24:05.361Z,11.47
2018-06-25T23:26:34.333Z,10.67
2018-06-25T23:29:03.380Z,9.13
2018-06-25T23:31:32.327Z,13.70
2018-06-25T23:34:01.269Z,14.07
2018-06-25T23:36:30.197Z,11.70
2018-06-25T23:38:59.141Z,13.10
2018-06-25T23:41:28.166Z,10.27
2018-06-25T23:43:57.183Z,13.47
2018-06-25T23:46:26.207Z,9.80
2018-06-25T23:48:55.139Z,15.40
2018-06-25T23:51:24.153Z,11.90
2018-06-25T23:53:53.138Z,12.17
2018-06-25T23:56:22.751Z,11.53
2018-06-25T23:58:52.048Z,11.53
